Skip Navigation LinksHome page > Weather > Current weather Skip Navigation Links

Current Weather

Heathrow, London

For information only: do not use for flight planning or navigation.
Latest weather
Observation time Wednesday, January 18, 2017 1:20 PM GMT
Local time Wednesday, January 18, 2017 2:00 PM GMT
Flight conditions Visual Meteorological Conditions
Winds
Wind direction variable
Wind speed 3 mph
Visibility 6.2 mi.
Sky condition
Ceiling unlimited
Temperature 41°F
Dewpoint 21°F
Altimeter 30.65 in.Hg
Derived measurements
Relative humidity 45%
Wind chill 39°F
Density altitude -1979 ft.
Remarks
Fully automated report.
No significant changes expected in the next two hours.
METAR EGLL 181320Z AUTO VRB03KT 9999 NCD 05/M06 Q1038 NOSIG

Settings

Location code

InnerDrive.Weather 4.0.6144.1 Release CLR 4.0.30319.34209
Copyright ©2015 Inner Drive Technology. All rights reserved. Portions Copyright ©1986-2015 David Braverman.

Find weather

Site navigation


Skip Navigation Links

Place info

Page info

PayPal - The safer, easier way to pay online!

Return home.

Copyright ©2017 Inner Drive Technology. Purveyors of fine, hand-crafted computer software. Page printed 2017-01-18T14:00:19 UTC.